Time;durP1;ratioP1;P1;durP2;ratioP2;P2;SDS_P1;SDS_P2;PMS_P1;PMS_P2;Temp;Humidity;BMP_temperature;BMP_pressure;BME280_temperature;BME280_humidity;BME280_pressure;Samples;Min_cycle;Max_cycle;Signal;HPM_P1;HPM_P2
2022/03/26 00:00:46;;;;;;;87.90;31.62;;;;;;;-2.30;100.00;101492.44;1752789;80;21034;-85
2022/03/26 00:03:14;;;;;;;88.87;31.85;;;;;;;-2.29;100.00;101480.92;1711450;81;22277;-84
2022/03/26 00:05:41;;;;;;;85.03;31.10;;;;;;;-2.33;100.00;101484.83;1744373;80;21098;-85
2022/03/26 00:08:08;;;;;;;88.80;31.62;;;;;;;-2.36;100.00;101484.31;1748875;80;21157;-84
2022/03/26 00:10:34;;;;;;;90.45;31.27;;;;;;;-2.41;100.00;101479.52;1746669;80;21094;-85
2022/03/26 00:13:00;;;;;;;87.70;32.15;;;;;;;-2.44;100.00;101484.24;1746541;81;21058;-84
2022/03/26 00:15:27;;;;;;;87.15;31.57;;;;;;;-2.47;100.00;101484.08;1749327;80;21021;-85
2022/03/26 00:17:54;;;;;;;79.72;30.72;;;;;;;-2.52;100.00;101483.20;1754808;80;21573;-85
2022/03/26 00:20:20;;;;;;;81.12;30.75;;;;;;;-2.56;100.00;101486.28;1748635;80;21201;-84
2022/03/26 00:22:47;;;;;;;88.17;32.63;;;;;;;-2.62;100.00;101477.66;1745465;80;21023;-84
2022/03/26 00:25:15;;;;;;;85.57;32.42;;;;;;;-2.66;100.00;101473.68;1748585;80;21014;-84
2022/03/26 00:27:42;;;;;;;80.80;31.00;;;;;;;-2.70;100.00;101478.44;1747949;80;21054;-84
2022/03/26 00:30:11;;;;;;;82.30;30.92;;;;;;;-2.80;100.00;101467.94;1749651;80;21140;-85
2022/03/26 00:32:38;;;;;;;93.20;32.75;;;;;;;-2.78;100.00;101474.40;1749238;80;21281;-84
2022/03/26 00:35:09;;;;;;;92.00;32.35;;;;;;;-2.76;100.00;101471.95;1747446;80;21073;-84
2022/03/26 00:37:34;;;;;;;88.55;31.30;;;;;;;-2.75;100.00;101472.28;1749715;80;21039;-84
2022/03/26 00:40:00;;;;;;;100.55;33.48;;;;;;;-2.72;100.00;101472.47;1754416;80;21042;-84
2022/03/26 00:42:27;;;;;;;96.22;32.83;;;;;;;-2.69;100.00;101470.03;1748850;80;20987;-85
2022/03/26 00:44:53;;;;;;;88.25;31.87;;;;;;;-2.67;100.00;101475.99;1747113;80;21042;-85
2022/03/26 00:47:19;;;;;;;86.78;31.15;;;;;;;-2.66;100.00;101474.50;1749297;80;20995;-85
2022/03/26 00:49:45;;;;;;;89.92;30.52;;;;;;;-2.64;100.00;101474.37;1747711;80;21054;-85
2022/03/26 00:52:12;;;;;;;82.20;29.02;;;;;;;-2.62;100.00;101470.60;1745487;80;20981;-84
2022/03/26 00:54:38;;;;;;;72.80;28.75;;;;;;;-2.59;100.00;101468.13;1746828;80;21706;-85
2022/03/26 00:57:05;;;;;;;81.02;30.80;;;;;;;-2.60;100.00;101462.52;1673388;82;22022;-85
2022/03/26 00:59:31;;;;;;;84.10;29.37;;;;;;;-2.61;100.00;101463.02;1690023;83;21132;-85
2022/03/26 01:01:58;;;;;;;81.95;29.27;;;;;;;-2.60;100.00;101463.84;1687923;83;21053;-85
2022/03/26 01:04:24;;;;;;;80.92;29.35;;;;;;;-2.59;100.00;101461.53;1671740;83;21098;-84
2022/03/26 01:06:50;;;;;;;73.47;28.55;;;;;;;-2.61;100.00;101468.78;1677023;82;21142;-85
2022/03/26 01:09:16;;;;;;;74.37;27.22;;;;;;;-2.60;100.00;101464.66;1680205;82;21240;-85
2022/03/26 01:11:43;;;;;;;77.82;27.35;;;;;;;-2.58;100.00;101473.76;1678952;83;21053;-85
2022/03/26 01:14:09;;;;;;;76.62;28.25;;;;;;;-2.58;100.00;101467.98;1688062;83;21137;-84
2022/03/26 01:16:35;;;;;;;71.28;27.50;;;;;;;-2.60;100.00;101463.34;1682391;82;21523;-85
2022/03/26 01:19:02;;;;;;;76.95;27.42;;;;;;;-2.61;100.00;101477.53;1684485;83;20967;-84
2022/03/26 01:21:28;;;;;;;73.75;29.63;;;;;;;-2.65;100.00;101474.83;1712553;80;21071;-84
2022/03/26 01:23:54;;;;;;;77.47;28.05;;;;;;;-2.67;100.00;101477.31;1747107;80;20979;-85
2022/03/26 01:26:21;;;;;;;84.92;27.55;;;;;;;-2.68;100.00;101462.44;1744942;80;20994;-85
2022/03/26 01:28:47;;;;;;;74.32;26.93;;;;;;;-2.68;100.00;101466.40;1747762;81;21405;-85
2022/03/26 01:31:13;;;;;;;76.30;27.75;;;;;;;-2.68;100.00;101461.95;1749676;80;21050;-84
2022/03/26 01:33:40;;;;;;;74.27;27.20;;;;;;;-2.68;100.00;101459.80;1755259;80;21062;-84
2022/03/26 01:36:08;;;;;;;75.55;27.25;;;;;;;-2.69;100.00;101462.94;1750031;80;21082;-85
2022/03/26 01:38:35;;;;;;;84.00;30.55;;;;;;;-2.69;100.00;101464.75;1709246;81;21089;-85
2022/03/26 01:41:01;;;;;;;82.62;29.27;;;;;;;-2.69;100.00;101460.80;1740016;80;21164;-85
2022/03/26 01:43:27;;;;;;;80.72;29.27;;;;;;;-2.66;100.00;101455.21;1756047;80;21117;-85
2022/03/26 01:45:53;;;;;;;82.33;31.48;;;;;;;-2.65;100.00;101460.81;1743883;80;21164;-85
2022/03/26 01:48:20;;;;;;;76.15;28.20;;;;;;;-2.71;100.00;101461.42;1748469;81;21038;-84
2022/03/26 01:50:46;;;;;;;78.70;28.05;;;;;;;-2.73;100.00;101466.05;1749411;80;21113;-85
2022/03/26 01:53:12;;;;;;;86.90;28.42;;;;;;;-2.74;100.00;101449.36;1755539;80;21005;-85
2022/03/26 01:55:38;;;;;;;86.57;29.23;;;;;;;-2.76;100.00;101452.17;1747815;80;21002;-85
2022/03/26 01:58:05;;;;;;;81.75;28.85;;;;;;;-2.76;100.00;101450.85;1753634;80;20980;-85
2022/03/26 02:00:31;;;;;;;81.72;29.50;;;;;;;-2.75;100.00;101448.54;1679807;83;21075;-85
2022/03/26 02:02:58;;;;;;;83.45;30.90;;;;;;;-2.77;100.00;101450.49;1677677;83;21007;-85
2022/03/26 02:05:25;;;;;;;72.00;29.87;;;;;;;-2.77;100.00;101447.86;1672176;84;21480;-85
2022/03/26 02:07:51;;;;;;;76.90;29.95;;;;;;;-2.77;100.00;101451.81;1674454;83;21188;-85
2022/03/26 02:10:19;;;;;;;81.45;29.80;;;;;;;-2.76;100.00;101446.89;1678206;83;21740;-85
2022/03/26 02:12:47;;;;;;;82.65;30.80;;;;;;;-2.75;100.00;101455.14;1674959;83;21200;-85
2022/03/26 02:15:15;;;;;;;84.60;28.98;;;;;;;-2.73;100.00;101457.64;1681726;83;21216;-85
2022/03/26 02:17:42;;;;;;;78.67;29.45;;;;;;;-2.69;100.00;101458.16;1680415;83;21136;-85
2022/03/26 02:20:12;;;;;;;76.15;28.27;;;;;;;-2.68;100.00;101462.44;1681595;84;21127;-85
2022/03/26 02:22:39;;;;;;;75.03;29.07;;;;;;;-2.65;100.00;101457.69;1635125;85;21153;-85
2022/03/26 02:25:07;;;;;;;77.55;27.05;;;;;;;-2.62;100.00;101453.92;1678327;82;21022;-85
2022/03/26 02:27:34;;;;;;;72.87;25.97;;;;;;;-2.60;100.00;101449.33;1697831;82;21267;-85
2022/03/26 02:30:00;;;;;;;68.95;26.30;;;;;;;-2.59;100.00;101451.83;1693739;82;21087;-84
2022/03/26 02:32:29;;;;;;;68.40;26.52;;;;;;;-2.58;100.00;101450.02;1700933;82;21157;-85
2022/03/26 02:34:57;;;;;;;69.82;26.25;;;;;;;-2.58;100.00;101453.97;1694932;82;22020;-85
2022/03/26 02:37:23;;;;;;;71.72;27.05;;;;;;;-2.61;100.00;101445.04;1686084;82;21109;-85
2022/03/26 02:39:50;;;;;;;73.47;25.82;;;;;;;-2.60;100.00;101449.33;1684839;82;21121;-86
2022/03/26 02:42:17;;;;;;;65.25;25.05;;;;;;;-2.61;100.00;101446.36;1695059;82;21082;-85
2022/03/26 02:44:43;;;;;;;66.12;26.50;;;;;;;-2.64;100.00;101450.63;1688038;82;21051;-85
2022/03/26 02:47:11;;;;;;;69.75;25.10;;;;;;;-2.67;100.00;101448.29;1698380;82;21013;-85
2022/03/26 02:49:38;;;;;;;82.25;26.80;;;;;;;-2.67;100.00;101450.44;1697102;82;21040;-85
2022/03/26 02:52:06;;;;;;;81.50;27.40;;;;;;;-2.68;100.00;101456.67;1702328;82;21179;-86
2022/03/26 02:54:33;;;;;;;74.95;27.87;;;;;;;-2.66;100.00;101447.30;1693371;83;21480;-85
2022/03/26 02:56:59;;;;;;;74.03;27.30;;;;;;;-2.64;100.00;101447.49;1696256;82;21014;-84
2022/03/26 02:59:26;;;;;;;73.80;28.12;;;;;;;-2.63;100.00;101454.41;1689991;82;21306;-85
2022/03/26 03:01:52;;;;;;;58.87;24.80;;;;;;;-2.64;100.00;101455.41;1692158;83;21178;-85
2022/03/26 03:04:23;;;;;;;79.45;27.60;;;;;;;-2.62;100.00;101463.15;1697932;82;21291;-85
2022/03/26 03:06:51;;;;;;;73.40;28.70;;;;;;;-2.62;100.00;101453.92;1689909;83;21049;-85
2022/03/26 03:09:18;;;;;;;71.70;27.73;;;;;;;-2.61;100.00;101450.31;1703117;83;21030;-85
2022/03/26 03:11:44;;;;;;;73.37;28.52;;;;;;;-2.59;100.00;101457.11;1692254;82;21827;-85
2022/03/26 03:14:11;;;;;;;69.45;27.00;;;;;;;-2.58;100.00;101446.05;1690948;82;22541;-85
2022/03/26 03:16:38;;;;;;;75.32;27.95;;;;;;;-2.55;100.00;101450.53;1693013;82;21093;-85
2022/03/26 03:19:05;;;;;;;77.58;27.15;;;;;;;-2.52;100.00;101450.22;1696767;82;21252;-85
2022/03/26 03:21:32;;;;;;;79.25;28.32;;;;;;;-2.48;100.00;101444.64;1698550;83;21081;-85
2022/03/26 03:23:58;;;;;;;80.87;28.73;;;;;;;-2.46;100.00;101440.05;1690760;82;21236;-85
2022/03/26 03:26:25;;;;;;;84.20;28.50;;;;;;;-2.46;100.00;101438.23;1729535;80;21199;-86
2022/03/26 03:28:51;;;;;;;74.25;26.12;;;;;;;-2.45;100.00;101437.73;1745084;80;21039;-85
2022/03/26 03:31:17;;;;;;;77.45;27.70;;;;;;;-2.44;100.00;101441.55;1750056;80;21169;-85
2022/03/26 03:33:43;;;;;;;73.45;27.37;;;;;;;-2.41;100.00;101446.52;1751786;80;21035;-85
2022/03/26 03:36:10;;;;;;;64.07;25.25;;;;;;;-2.37;100.00;101450.50;1746727;80;21050;-85
2022/03/26 03:38:36;;;;;;;65.80;25.62;;;;;;;-2.34;100.00;101442.77;1746921;80;20942;-86
2022/03/26 03:41:02;;;;;;;73.60;25.35;;;;;;;-2.32;100.00;101459.30;1718499;80;21030;-86
2022/03/26 03:43:28;;;;;;;69.07;24.70;;;;;;;-2.30;100.00;101446.25;1751290;80;21035;-85
2022/03/26 03:45:55;;;;;;;63.65;25.52;;;;;;;-2.21;100.00;101452.91;1753979;80;21061;-85
2022/03/26 03:48:21;;;;;;;67.85;23.75;;;;;;;-2.18;100.00;101449.96;1748338;80;21111;-85
2022/03/26 03:50:47;;;;;;;70.62;24.87;;;;;;;-2.13;100.00;101448.52;1746769;80;20954;-85
2022/03/26 03:53:15;;;;;;;67.00;25.82;;;;;;;-2.05;100.00;101443.78;1750696;80;21728;-85
2022/03/26 03:55:41;;;;;;;64.70;24.40;;;;;;;-1.97;100.00;101446.95;1748754;80;21090;-86
2022/03/26 03:58:07;;;;;;;62.08;23.22;;;;;;;-1.91;100.00;101441.89;1741543;80;21027;-86
2022/03/26 04:00:34;;;;;;;65.83;23.98;;;;;;;-1.79;100.00;101446.87;1753337;80;21866;-86
2022/03/26 04:03:00;;;;;;;68.22;23.70;;;;;;;-1.68;100.00;101449.25;1745265;80;21149;-86
2022/03/26 04:05:26;;;;;;;64.58;23.60;;;;;;;-1.57;100.00;101434.94;1747537;80;21101;-86
2022/03/26 04:07:53;;;;;;;64.05;23.02;;;;;;;-1.45;100.00;101438.44;1749415;80;21133;-86
2022/03/26 04:10:19;;;;;;;62.25;22.37;;;;;;;-1.32;100.00;101438.00;1749011;80;21088;-86
2022/03/26 04:12:46;;;;;;;57.30;22.58;;;;;;;-1.20;100.00;101446.47;1737307;80;21123;-86
2022/03/26 04:15:14;;;;;;;64.70;21.87;;;;;;;-1.05;100.00;101433.44;1746402;80;20939;-86
2022/03/26 04:17:40;;;;;;;59.48;22.02;;;;;;;-0.89;100.00;101436.59;1750259;80;20991;-86
2022/03/26 04:20:09;;;;;;;64.30;21.85;;;;;;;-0.71;100.00;101438.59;1748523;80;20990;-87
2022/03/26 04:22:37;;;;;;;62.00;22.13;;;;;;;-0.51;100.00;101437.27;1746182;80;21022;-87
2022/03/26 04:25:05;;;;;;;60.38;23.52;;;;;;;-0.27;100.00;101440.88;1750687;80;21111;-87
2022/03/26 04:27:31;;;;;;;66.87;23.47;;;;;;;0.51;100.00;101440.69;1725229;81;21003;-87
2022/03/26 04:29:57;;;;;;;67.10;25.45;;;;;;;1.89;100.00;101438.85;1742443;80;21090;-88
2022/03/26 04:32:23;;;;;;;76.37;26.45;;;;;;;3.16;100.00;101436.73;1750216;80;21176;-88
2022/03/26 04:34:50;;;;;;;79.45;27.00;;;;;;;4.30;100.00;101434.42;1748453;80;20997;-89
2022/03/26 04:37:16;;;;;;;90.32;30.45;;;;;;;5.32;100.00;101434.81;1747031;80;21655;-89
2022/03/26 04:39:43;;;;;;;93.17;30.23;;;;;;;6.28;100.00;101429.00;1749902;80;21109;-90
2022/03/26 04:42:09;;;;;;;65.10;25.32;;;;;;;7.20;100.00;101430.91;1752132;80;21136;-90
2022/03/26 04:44:36;;;;;;;50.63;20.92;;;;;;;7.80;100.00;101429.65;1750155;80;21076;-90
2022/03/26 04:47:02;;;;;;;50.35;21.20;;;;;;;8.53;100.00;101431.06;1747002;80;21101;-91
2022/03/26 04:49:28;;;;;;;54.30;20.32;;;;;;;9.46;100.00;101424.34;1750654;81;21757;-90
2022/03/26 04:51:55;;;;;;;52.85;21.10;;;;;;;10.44;100.00;101421.98;1746277;80;21605;-91
2022/03/26 04:54:21;;;;;;;61.88;22.67;;;;;;;11.26;90.13;101422.17;1740123;80;21605;-90
2022/03/26 04:56:47;;;;;;;57.30;21.52;;;;;;;12.03;79.98;101418.29;1670169;83;21548;-90
2022/03/26 04:59:13;;;;;;;48.30;19.80;;;;;;;12.92;76.62;101426.66;1664609;85;21054;-90
2022/03/26 05:01:44;;;;;;;51.18;20.20;;;;;;;13.78;68.01;101426.33;1668310;83;21148;-90
2022/03/26 05:04:08;;;;;;;41.37;18.80;;;;;;;14.50;63.90;101417.50;1685479;83;21066;-90
2022/03/26 05:06:34;;;;;;;43.15;19.60;;;;;;;15.18;58.45;101428.27;1691700;83;21073;-90
2022/03/26 05:09:00;;;;;;;45.67;20.27;;;;;;;15.73;52.68;101425.03;1686074;83;21192;-90
2022/03/26 05:11:27;;;;;;;43.65;20.20;;;;;;;16.23;50.64;101426.00;1673058;84;21132;-89
2022/03/26 05:13:53;;;;;;;41.65;19.37;;;;;;;16.53;49.67;101422.33;1684192;83;21196;-90
2022/03/26 05:16:19;;;;;;;42.90;19.40;;;;;;;17.05;47.79;101424.27;1697849;83;20999;-91
2022/03/26 05:18:45;;;;;;;40.50;18.87;;;;;;;17.58;46.01;101414.30;1685305;83;21502;-91
2022/03/26 05:21:12;;;;;;;40.88;18.35;;;;;;;18.29;44.86;101422.85;1716634;81;21504;-91
2022/03/26 05:23:38;;;;;;;44.58;19.60;;;;;;;18.70;43.01;101415.50;1750526;80;21488;-90
2022/03/26 05:26:04;;;;;;;43.33;19.23;;;;;;;19.22;42.58;101416.41;1745357;80;21073;-91
2022/03/26 05:28:31;;;;;;;42.60;19.90;;;;;;;19.67;40.41;101419.50;1748519;80;20995;-92
2022/03/26 05:30:57;;;;;;;38.53;19.12;;;;;;;19.98;38.95;101414.84;1748048;80;21034;-92
2022/03/26 05:33:23;;;;;;;45.83;19.85;;;;;;;19.96;37.96;101416.50;1751985;80;20994;-92
2022/03/26 05:35:50;;;;;;;40.23;18.57;;;;;;;20.17;38.09;101418.28;1749348;80;21124;-91
2022/03/26 05:38:16;;;;;;;35.98;17.87;;;;;;;20.69;36.96;101419.44;1751748;80;21108;-92
2022/03/26 05:40:42;;;;;;;40.40;19.12;;;;;;;21.08;36.88;101421.53;1752222;80;21112;-91
2022/03/26 05:43:09;;;;;;;36.30;18.27;;;;;;;21.66;35.50;101422.61;1747674;80;21148;-93
2022/03/26 05:45:35;;;;;;;37.28;19.80;;;;;;;21.91;34.29;101422.48;1751501;80;21105;-93
2022/03/26 05:48:05;;;;;;;35.10;19.00;;;;;;;22.26;34.65;101424.82;1750600;81;21034;-93
2022/03/26 05:50:33;;;;;;;37.23;19.60;;;;;;;23.13;33.90;101415.34;1747540;80;21122;-92
2022/03/26 05:52:59;;;;;;;34.58;19.23;;;;;;;23.80;32.86;101416.69;1748164;80;21031;-92
2022/03/26 05:55:25;;;;;;;38.58;19.82;;;;;;;24.17;31.98;101411.50;1751209;80;21652;-92
2022/03/26 05:57:52;;;;;;;36.38;19.35;;;;;;;24.29;30.28;101414.91;1750345;80;20994;-93
2022/03/26 06:00:18;;;;;;;36.45;19.60;;;;;;;24.28;30.37;101414.11;1749276;80;21011;-93
2022/03/26 06:02:44;;;;;;;35.17;18.65;;;;;;;24.47;30.25;101410.94;1744454;80;21130;-91
2022/03/26 06:05:11;;;;;;;38.78;19.20;;;;;;;24.93;29.81;101414.08;1749197;80;21094;-92
2022/03/26 06:07:37;;;;;;;40.78;20.12;;;;;;;25.26;29.29;101415.28;1747384;80;21076;-92
2022/03/26 06:10:04;;;;;;;37.13;19.95;;;;;;;25.57;28.31;101416.98;1750378;80;21698;-92
2022/03/26 06:12:31;;;;;;;36.38;18.60;;;;;;;25.48;28.00;101412.72;1748892;80;21686;-92
2022/03/26 06:14:58;;;;;;;38.85;20.88;;;;;;;25.56;27.87;101408.48;1747872;80;21129;-92
2022/03/26 06:17:24;;;;;;;46.35;20.77;;;;;;;25.96;27.95;101407.06;1747270;80;21057;-91
2022/03/26 06:19:51;;;;;;;36.42;19.10;;;;;;;26.58;27.32;101402.31;1749900;80;21049;-91
2022/03/26 06:22:17;;;;;;;37.45;19.80;;;;;;;26.67;26.34;101402.98;1750381;80;21010;-92
2022/03/26 06:24:43;;;;;;;33.55;18.23;;;;;;;27.01;26.19;101392.51;1754566;80;21187;-92
2022/03/26 06:27:09;;;;;;;39.48;19.17;;;;;;;27.07;25.59;101389.13;1747793;80;21133;-91
2022/03/26 06:29:36;;;;;;;28.17;17.25;;;;;;;27.51;25.60;101386.97;1746849;80;21148;-91
2022/03/26 06:32:04;;;;;;;37.50;16.75;;;;;;;27.68;24.72;101388.56;1748299;80;21066;-92
2022/03/26 06:34:30;;;;;;;25.62;15.55;;;;;;;27.86;25.19;101392.63;1749217;80;21025;-90
2022/03/26 06:36:56;;;;;;;27.65;15.60;;;;;;;28.10;23.83;101391.62;1750162;80;21066;-92
2022/03/26 06:39:23;;;;;;;23.62;14.87;;;;;;;28.27;24.59;101394.59;1751194;80;21613;-90
2022/03/26 06:41:49;;;;;;;30.15;16.37;;;;;;;28.82;23.56;101394.01;1749475;80;21549;-91
2022/03/26 06:44:15;;;;;;;26.77;15.75;;;;;;;28.82;23.20;101398.17;1746939;80;21538;-91
2022/03/26 06:46:42;;;;;;;32.33;14.78;;;;;;;28.78;22.99;101393.73;1750299;80;21043;-91
2022/03/26 06:49:09;;;;;;;22.15;13.45;;;;;;;28.94;22.99;101391.11;1740551;80;21038;-91
2022/03/26 06:51:36;;;;;;;26.82;14.75;;;;;;;29.21;22.07;101382.92;1721164;81;21157;-91
2022/03/26 06:54:03;;;;;;;25.70;14.90;;;;;;;29.29;22.03;101376.31;1730959;81;21573;-91
2022/03/26 06:56:29;;;;;;;23.15;14.73;;;;;;;29.22;21.50;101382.34;1749321;80;21003;-91
2022/03/26 06:58:56;;;;;;;23.98;13.88;;;;;;;29.36;21.94;101382.60;1738221;80;21153;-90
2022/03/26 07:01:22;;;;;;;25.40;14.03;;;;;;;30.18;21.38;101388.70;1746858;80;21244;-90
2022/03/26 07:03:49;;;;;;;22.32;13.18;;;;;;;30.57;20.34;101387.91;1751194;80;21152;-90
2022/03/26 07:06:16;;;;;;;20.90;12.35;;;;;;;30.64;20.09;101381.03;1749923;80;21551;-90
2022/03/26 07:08:42;;;;;;;22.48;11.95;;;;;;;30.65;20.38;101374.88;1750996;80;21038;-91
2022/03/26 07:11:09;;;;;;;23.07;12.25;;;;;;;30.99;19.68;101368.76;1742310;80;21023;-90
2022/03/26 07:13:35;;;;;;;26.27;12.70;;;;;;;30.96;19.29;101362.56;1737969;81;21164;-90
2022/03/26 07:16:02;;;;;;;21.25;12.15;;;;;;;31.42;19.84;101358.09;1746696;80;21972;-89
2022/03/26 07:18:28;;;;;;;23.22;12.13;;;;;;;31.80;19.52;101352.63;1751386;80;21420;-91
2022/03/26 07:20:59;;;;;;;18.42;11.33;;;;;;;32.06;19.22;101349.42;1748752;80;21026;-90
2022/03/26 07:23:23;;;;;;;19.77;11.38;;;;;;;32.17;19.21;101353.67;1737468;80;21161;-92
2022/03/26 07:25:49;;;;;;;19.30;10.60;;;;;;;32.17;18.73;101352.28;1747985;80;21066;-90
2022/03/26 07:28:16;;;;;;;17.40;9.63;;;;;;;32.09;18.12;101349.46;1748916;80;21613;-90
2022/03/26 07:30:42;;;;;;;15.08;10.38;;;;;;;31.99;18.43;101342.41;1750640;80;21105;-90
2022/03/26 07:33:09;;;;;;;15.18;9.88;;;;;;;32.23;17.68;101342.35;1750813;80;21034;-89
2022/03/26 07:35:35;;;;;;;15.95;10.60;;;;;;;32.24;18.00;101335.00;1748541;80;21093;-90
2022/03/26 07:38:02;;;;;;;16.40;10.50;;;;;;;32.44;17.47;101338.86;1750045;80;21168;-90
2022/03/26 07:40:29;;;;;;;15.78;9.58;;;;;;;32.21;17.58;101328.81;1746268;80;21152;-89
2022/03/26 07:42:56;;;;;;;14.18;8.35;;;;;;;32.50;17.59;101328.37;1748412;80;21089;-89
2022/03/26 07:45:23;;;;;;;13.10;9.23;;;;;;;32.66;17.17;101321.64;1747355;80;21598;-91
2022/03/26 07:47:50;;;;;;;12.43;8.80;;;;;;;32.22;16.84;101322.63;1745500;80;20990;-90
2022/03/26 07:50:17;;;;;;;11.48;8.48;;;;;;;31.86;17.29;101315.42;1752777;80;21079;-90
2022/03/26 07:52:43;;;;;;;12.30;8.50;;;;;;;32.27;16.79;101304.92;1748730;80;21035;-90
2022/03/26 07:55:10;;;;;;;14.58;8.50;;;;;;;32.44;16.78;101293.61;1751623;80;21036;-88
2022/03/26 07:57:37;;;;;;;11.65;7.90;;;;;;;32.33;16.66;101287.22;1744875;81;21170;-89
2022/03/26 08:00:06;;;;;;;13.05;8.25;;;;;;;32.35;16.81;101287.00;1745312;81;21552;-89
2022/03/26 08:02:33;;;;;;;20.27;8.68;;;;;;;32.30;16.65;101274.05;1751221;80;21492;-88
2022/03/26 08:05:00;;;;;;;10.48;7.95;;;;;;;32.28;16.82;101266.66;1748864;80;21142;-89
2022/03/26 08:07:28;;;;;;;18.23;10.25;;;;;;;32.35;16.72;101263.28;1750532;80;21201;-89
2022/03/26 08:09:56;;;;;;;19.20;10.35;;;;;;;32.73;16.54;101254.05;1748636;80;21050;-88
2022/03/26 08:12:23;;;;;;;18.23;10.18;;;;;;;32.54;16.66;101260.00;1746860;81;20994;-89
2022/03/26 08:14:50;;;;;;;23.70;10.90;;;;;;;32.64;16.51;101260.61;1750166;80;20922;-88
2022/03/26 08:17:17;;;;;;;15.45;10.00;;;;;;;32.60;16.70;101252.84;1723382;81;21294;-88
2022/03/26 08:19:45;;;;;;;15.48;10.15;;;;;;;33.00;16.45;101240.56;1746859;80;21022;-88
2022/03/26 08:22:12;;;;;;;18.55;10.23;;;;;;;33.04;16.35;101233.58;1749288;80;21046;-88
2022/03/26 08:24:38;;;;;;;20.80;9.95;;;;;;;33.22;16.08;101221.00;1723916;80;21120;-89
2022/03/26 08:27:05;;;;;;;14.33;10.10;;;;;;;32.95;15.95;101226.97;1748189;80;21622;-89
2022/03/26 08:29:32;;;;;;;16.75;9.65;;;;;;;33.16;16.08;101224.80;1746656;80;21920;-88
2022/03/26 08:32:02;;;;;;;16.32;9.30;;;;;;;33.55;15.58;101232.36;1748133;80;21078;-88
2022/03/26 08:34:27;;;;;;;27.22;10.30;;;;;;;33.02;15.61;101221.40;1751147;80;21070;-90
2022/03/26 08:36:55;;;;;;;22.25;8.95;;;;;;;32.72;15.68;101226.55;1746845;80;21022;-87
2022/03/26 08:39:22;;;;;;;13.85;8.80;;;;;;;32.60;15.43;101233.91;1754210;81;21484;-87
2022/03/26 08:41:49;;;;;;;14.50;7.87;;;;;;;32.49;15.83;101214.33;1717366;81;21140;-88
2022/03/26 08:44:16;;;;;;;14.30;8.63;;;;;;;32.68;15.75;101211.77;1717225;80;21504;-88
2022/03/26 08:46:42;;;;;;;14.65;8.08;;;;;;;32.41;15.20;101203.71;1747748;80;21282;-87
2022/03/26 08:49:09;;;;;;;12.20;8.38;;;;;;;32.24;15.55;101207.25;1749086;80;21474;-88
2022/03/26 08:51:36;;;;;;;18.45;8.35;;;;;;;32.22;15.36;101197.09;1748055;80;21124;-88
2022/03/26 08:54:03;;;;;;;15.88;8.83;;;;;;;32.30;15.47;101201.52;1749420;80;21526;-86
2022/03/26 08:56:30;;;;;;;14.35;8.60;;;;;;;32.28;15.16;101198.31;1750361;80;21033;-89
2022/03/26 08:58:57;;;;;;;15.25;9.25;;;;;;;32.28;15.16;101198.31;1745336;80;22380;-85
2022/03/26 09:01:24;;;;;;;18.77;8.70;;;;;;;31.88;15.07;101189.75;1749272;80;21144;-89
2022/03/26 09:03:51;;;;;;;15.88;9.28;;;;;;;31.46;15.12;101188.95;1754353;80;21046;-87
2022/03/26 09:06:18;;;;;;;19.05;9.53;;;;;;;30.98;15.61;101187.59;1748639;80;21160;-87
2022/03/26 09:08:45;;;;;;;16.02;8.55;;;;;;;31.14;15.75;101182.53;1756396;80;21011;-88
2022/03/26 09:11:12;;;;;;;16.35;8.70;;;;;;;31.16;15.56;101175.20;1746786;80;20967;-89
2022/03/26 09:13:39;;;;;;;19.02;9.78;;;;;;;31.13;15.88;101179.55;1748203;80;21045;-89
2022/03/26 09:16:06;;;;;;;18.40;10.90;;;;;;;31.23;15.49;101182.20;1746920;80;21217;-86
2022/03/26 09:18:33;;;;;;;26.95;11.05;;;;;;;30.75;15.75;101178.81;1749610;80;22215;-86
2022/03/26 09:21:00;;;;;;;23.18;11.25;;;;;;;30.54;15.68;101172.45;1743176;80;21103;-88
2022/03/26 09:23:26;;;;;;;21.95;11.78;;;;;;;30.31;15.86;101168.44;1744213;80;21471;-86
2022/03/26 09:25:53;;;;;;;29.10;12.07;;;;;;;30.28;16.01;101163.64;1752730;80;21019;-86
2022/03/26 09:28:20;;;;;;;23.67;12.85;;;;;;;30.36;15.99;101150.62;1728031;80;21558;-85
2022/03/26 09:30:47;;;;;;;30.37;13.50;;;;;;;30.30;15.86;101160.49;1746202;80;21074;-89
2022/03/26 09:33:13;;;;;;;27.85;13.75;;;;;;;29.78;16.18;101149.72;1745388;80;21018;-86
2022/03/26 09:35:40;;;;;;;27.62;13.38;;;;;;;29.46;16.42;101145.89;1751130;80;21504;-86
2022/03/26 09:38:07;;;;;;;29.10;13.43;;;;;;;29.56;16.54;101143.04;1750772;80;21002;-87
2022/03/26 09:40:35;;;;;;;30.70;14.63;;;;;;;29.45;16.67;101131.80;1751695;80;20931;-86
2022/03/26 09:43:02;;;;;;;42.88;15.98;;;;;;;29.39;16.58;101129.14;1749170;80;21682;-86
2022/03/26 09:45:29;;;;;;;36.20;15.15;;;;;;;28.94;16.60;101122.48;1748068;80;21157;-86
2022/03/26 09:47:56;;;;;;;31.50;14.80;;;;;;;28.70;16.98;101119.52;1746180;80;21556;-86
2022/03/26 09:50:23;;;;;;;35.10;16.37;;;;;;;28.55;17.30;101114.91;1745695;80;21079;-86
2022/03/26 09:52:51;;;;;;;39.53;15.90;;;;;;;28.30;17.40;101111.09;1746513;80;21582;-88
2022/03/26 09:55:21;;;;;;;40.90;17.07;;;;;;;28.17;17.37;101093.01;1688540;82;21203;-88
2022/03/26 09:57:49;;;;;;;31.23;15.38;;;;;;;27.46;17.70;101100.66;1690196;83;21097;-88
2022/03/26 10:00:16;;;;;;;34.00;16.30;;;;;;;27.02;18.29;101080.08;1683458;83;21392;-89
2022/03/26 10:02:43;;;;;;;34.10;15.03;;;;;;;26.42;18.60;101085.72;1681088;83;21014;-88
2022/03/26 10:05:12;;;;;;;32.48;14.98;;;;;;;26.15;19.05;101084.04;1684524;83;21068;-89
2022/03/26 10:07:39;;;;;;;33.45;17.12;;;;;;;25.67;19.22;101081.67;1689109;83;21309;-88
2022/03/26 10:10:07;;;;;;;33.73;15.55;;;;;;;25.47;19.40;101073.83;1666874;83;21102;-88
2022/03/26 10:12:34;;;;;;;43.15;14.78;;;;;;;25.22;19.84;101074.44;1682283;83;20966;-88
2022/03/26 10:15:04;;;;;;;32.10;14.98;;;;;;;25.08;19.99;101059.59;1687932;83;21175;-88
2022/03/26 10:17:34;;;;;;;33.20;14.68;;;;;;;24.50;20.33;101059.48;1692670;83;21042;-85
2022/03/26 10:20:10;;;;;;;33.63;14.10;;;;;;;24.18;20.71;101064.13;1661565;84;21150;-88
2022/03/26 10:22:43;;;;;;;35.85;13.98;;;;;;;23.83;20.46;101058.74;1668575;84;21018;-88
2022/03/26 10:25:21;;;;;;;37.75;13.13;;;;;;;22.98;20.58;101059.83;1663147;84;21053;-87
2022/03/26 10:27:53;;;;;;;34.33;12.90;;;;;;;22.18;21.33;101048.91;1691694;82;21030;-87
2022/03/26 10:33:21;;;;;;;39.40;12.80;;;;;;;21.48;22.04;101030.89;1644401;85;21016;-87
2022/03/26 10:35:57;;;;;;;33.58;12.73;;;;;;;21.24;22.51;101024.48;1641052;86;21111;-85
2022/03/26 10:38:39;;;;;;;41.90;15.80;;;;;;;20.97;22.90;101011.31;1581285;88;21305;-86
2022/03/26 10:41:09;;;;;;;51.50;22.85;;;;;;;20.87;23.35;101010.23;1584999;87;21173;-86
2022/03/26 10:43:43;;;;;;;48.28;19.23;;;;;;;20.71;23.78;100999.48;1579032;88;21221;-86
2022/03/26 10:46:12;;;;;;;32.50;12.30;;;;;;;20.61;24.06;100999.20;1595672;88;21643;-86
2022/03/26 10:48:39;;;;;;;30.68;12.05;;;;;;;20.64;24.00;100982.93;1586512;89;21666;-85
2022/03/26 10:51:10;;;;;;;29.15;11.85;;;;;;;20.50;24.15;100982.77;1583132;88;21093;-88
2022/03/26 10:53:40;;;;;;;30.52;11.73;;;;;;;20.37;24.36;100971.63;1582831;89;21207;-88
2022/03/26 10:56:10;;;;;;;34.38;12.07;;;;;;;20.28;24.53;100966.68;1576500;89;21423;-87
2022/03/26 10:58:39;;;;;;;33.48;12.00;;;;;;;20.22;24.76;100963.84;1589656;88;21134;-87
2022/03/26 11:01:06;;;;;;;38.70;10.80;;;;;;;20.31;24.80;100964.67;1580890;88;21658;-88
2022/03/26 11:03:35;;;;;;;25.00;11.83;;;;;;;20.52;24.55;100954.52;1592739;88;32638;-88
2022/03/26 11:06:08;;;;;;;25.00;10.65;;;;;;;20.50;24.19;100949.37;1588729;88;22573;-88
2022/03/26 11:08:36;;;;;;;29.65;10.18;;;;;;;20.31;24.07;100945.52;1587631;88;21088;-86